createdAt,value
2023-04-23T00:00:20.641Z,7.63
2023-04-23T00:05:27.281Z,7.53
2023-04-23T00:10:30.274Z,7.47
2023-04-23T00:15:33.259Z,7.05
2023-04-23T00:20:37.045Z,8.02
2023-04-23T00:25:39.668Z,8.00
2023-04-23T00:30:41.812Z,7.25
2023-04-23T00:35:44.472Z,7.25
2023-04-23T00:40:47.146Z,7.43
2023-04-23T00:45:51.338Z,6.68
2023-04-23T00:51:01.084Z,7.35
2023-04-23T00:56:06.336Z,7.68
2023-04-23T01:01:10.095Z,6.93
2023-04-23T01:06:12.847Z,6.45
2023-04-23T01:11:16.087Z,6.95
2023-04-23T01:16:18.835Z,7.13
2023-04-23T01:21:21.792Z,8.23
2023-04-23T01:26:25.054Z,7.90
2023-04-23T01:31:29.111Z,7.80
2023-04-23T01:36:33.516Z,8.18
2023-04-23T01:41:36.923Z,7.63
2023-04-23T01:46:39.322Z,7.97
2023-04-23T01:51:43.368Z,7.82
2023-04-23T01:56:46.071Z,6.70
2023-04-23T02:01:50.322Z,7.68
2023-04-23T02:06:53.560Z,7.40
2023-04-23T02:11:57.943Z,7.68
2023-04-23T02:17:00.619Z,8.38
2023-04-23T02:22:04.081Z,7.70
2023-04-23T02:27:06.276Z,7.75
2023-04-23T02:32:08.932Z,7.20
2023-04-23T02:37:12.444Z,7.43
2023-04-23T02:42:14.961Z,7.50
2023-04-23T02:47:17.640Z,7.78
2023-04-23T02:52:20.447Z,6.82
2023-04-23T02:57:23.344Z,7.63
2023-04-23T03:02:26.426Z,7.55
2023-04-23T03:07:28.792Z,7.82
2023-04-23T03:12:31.387Z,8.55
2023-04-23T03:17:34.618Z,7.50
2023-04-23T03:22:37.955Z,8.30
2023-04-23T03:27:44.271Z,8.10
2023-04-23T03:32:47.091Z,7.70
2023-04-23T03:37:50.217Z,8.55
2023-04-23T03:42:53.606Z,8.95
2023-04-23T03:48:03.805Z,8.70
2023-04-23T03:53:08.293Z,8.48
2023-04-23T03:58:29.493Z,8.75
2023-04-23T04:03:32.739Z,15.48
2023-04-23T04:08:35.644Z,9.98
2023-04-23T04:13:38.382Z,8.38
2023-04-23T04:18:40.694Z,8.88
2023-04-23T04:23:45.404Z,8.27
2023-04-23T04:28:48.122Z,7.85
2023-04-23T04:33:51.100Z,8.70
2023-04-23T04:38:58.933Z,8.43
2023-04-23T04:44:01.611Z,10.30
2023-04-23T04:49:04.510Z,8.88
2023-04-23T04:54:08.018Z,8.90
2023-04-23T04:59:11.286Z,7.88
2023-04-23T05:04:14.322Z,7.43
2023-04-23T05:09:17.637Z,6.97
2023-04-23T05:14:20.324Z,6.75
2023-04-23T05:19:23.875Z,7.20
2023-04-23T05:24:26.643Z,6.38
2023-04-23T05:29:29.264Z,5.53
2023-04-23T05:34:31.927Z,6.40
2023-04-23T05:39:34.646Z,5.65
2023-04-23T05:44:37.340Z,6.45
2023-04-23T05:49:40.223Z,4.85
2023-04-23T05:54:43.564Z,4.03
2023-04-23T05:59:46.487Z,4.28
2023-04-23T06:04:49.189Z,5.40
2023-04-23T06:09:52.081Z,4.78
2023-04-23T06:14:55.012Z,5.10
2023-04-23T06:19:57.750Z,4.47
2023-04-23T06:25:00.575Z,4.35
2023-04-23T06:30:03.195Z,4.32
2023-04-23T06:35:08.517Z,3.97
2023-04-23T06:40:11.821Z,3.78
2023-04-23T06:45:15.580Z,3.75
2023-04-23T06:50:18.284Z,3.63
2023-04-23T06:55:22.285Z,3.80
2023-04-23T07:00:25.523Z,4.07
2023-04-23T07:05:28.433Z,3.92
2023-04-23T07:10:31.616Z,4.22
2023-04-23T07:15:33.937Z,4.57
2023-04-23T07:20:36.861Z,4.35
2023-04-23T07:25:39.224Z,4.70
2023-04-23T07:30:41.975Z,4.85
2023-04-23T07:35:44.523Z,4.43
2023-04-23T07:40:47.969Z,4.35
2023-04-23T07:45:50.708Z,4.15
2023-04-23T07:50:54.164Z,4.25
2023-04-23T07:55:57.225Z,5.32
2023-04-23T08:00:59.925Z,3.63
2023-04-23T08:06:04.721Z,3.75
2023-04-23T08:11:26.472Z,4.00
2023-04-23T08:16:30.876Z,4.55
2023-04-23T08:21:34.257Z,4.65
2023-04-23T08:26:37.096Z,4.10
2023-04-23T08:31:39.995Z,3.80
2023-04-23T08:36:43.103Z,4.43
2023-04-23T08:41:49.604Z,3.65
2023-04-23T08:46:54.846Z,3.38
2023-04-23T08:52:05.729Z,3.10
2023-04-23T08:57:10.207Z,3.03
2023-04-23T09:02:13.170Z,3.22
2023-04-23T09:07:17.994Z,3.05
2023-04-23T09:12:22.105Z,2.92
2023-04-23T09:17:30.008Z,3.55
2023-04-23T09:22:48.362Z,2.75
2023-04-23T09:27:53.098Z,2.72
2023-04-23T09:32:56.087Z,3.10
2023-04-23T09:37:58.914Z,3.35
2023-04-23T09:43:05.049Z,2.78
2023-04-23T09:48:07.764Z,2.67
2023-04-23T09:53:11.097Z,3.35
2023-04-23T09:58:15.921Z,5.05
2023-04-23T10:03:27.983Z,3.53
2023-04-23T10:08:32.646Z,3.70
2023-04-23T10:13:38.586Z,3.40
2023-04-23T10:18:41.393Z,3.80
2023-04-23T10:23:47.634Z,3.90
2023-04-23T10:28:55.087Z,3.72
2023-04-23T10:33:59.687Z,3.33
2023-04-23T10:39:07.994Z,3.42
2023-04-23T10:44:16.129Z,3.10
2023-04-23T10:49:18.950Z,3.10
2023-04-23T10:54:21.562Z,3.13
2023-04-23T10:59:24.338Z,3.20
2023-04-23T11:04:29.483Z,3.38
2023-04-23T11:09:35.037Z,4.13
2023-04-23T11:14:43.275Z,3.42
2023-04-23T11:20:22.426Z,3.17
2023-04-23T11:25:27.433Z,3.17
2023-04-23T11:30:30.912Z,4.60
2023-04-23T11:35:40.816Z,3.58
2023-04-23T11:40:48.656Z,3.90
2023-04-23T11:45:51.089Z,3.10
2023-04-23T11:50:53.776Z,3.03
2023-04-23T11:55:56.582Z,3.65
2023-04-23T12:01:02.855Z,3.65
2023-04-23T12:06:05.845Z,3.42
2023-04-23T12:11:08.980Z,3.17
2023-04-23T12:16:11.411Z,8.82
2023-04-23T12:21:15.311Z,3.15
2023-04-23T12:26:20.593Z,6.95
2023-04-23T12:31:32.546Z,5.78
2023-04-23T12:36:36.920Z,4.20
2023-04-23T12:41:39.808Z,3.35
2023-04-23T12:46:42.547Z,3.35
2023-04-23T12:51:45.234Z,2.72
2023-04-23T12:56:47.932Z,3.03
2023-04-23T13:01:51.533Z,3.65
2023-04-23T13:06:54.772Z,4.22
2023-04-23T13:11:57.688Z,4.85
2023-04-23T13:17:00.519Z,4.10
2023-04-23T13:22:04.974Z,7.55
2023-04-23T13:27:07.964Z,5.72
2023-04-23T13:32:10.780Z,6.82
2023-04-23T13:37:13.584Z,4.28
2023-04-23T13:42:16.250Z,4.05
2023-04-23T13:47:18.647Z,6.93
2023-04-23T13:52:21.287Z,4.22
2023-04-23T13:57:24.193Z,3.55
2023-04-23T14:02:27.131Z,17.90
2023-04-23T14:07:29.535Z,11.82
2023-04-23T14:12:32.834Z,13.82
2023-04-23T14:17:37.428Z,36.35
2023-04-23T14:22:41.033Z,7.97
2023-04-23T14:27:47.647Z,5.47
2023-04-23T14:32:50.611Z,31.95
2023-04-23T14:37:53.381Z,8.68
2023-04-23T14:43:01.895Z,9.98
2023-04-23T14:48:10.925Z,7.53
2023-04-23T14:53:13.627Z,7.40
2023-04-23T14:58:16.221Z,6.80
2023-04-23T15:03:19.181Z,6.80
2023-04-23T15:08:21.858Z,5.70
2023-04-23T15:13:29.258Z,6.22
2023-04-23T15:18:34.015Z,9.52
2023-04-23T15:23:36.683Z,8.80
2023-04-23T15:28:39.373Z,7.97
2023-04-23T15:33:42.129Z,7.13
2023-04-23T15:38:44.495Z,6.30
2023-04-23T15:43:49.035Z,31.13
2023-04-23T15:48:51.749Z,10.30
2023-04-23T15:53:54.429Z,12.20
2023-04-23T15:58:57.292Z,5.82
2023-04-23T16:04:09.521Z,6.05
2023-04-23T16:09:13.336Z,12.82
2023-04-23T16:14:16.002Z,26.85
2023-04-23T16:19:18.569Z,11.25
2023-04-23T16:24:23.372Z,14.45
2023-04-23T16:29:25.713Z,18.65
2023-04-23T16:34:28.309Z,9.18
2023-04-23T16:39:31.263Z,21.63
2023-04-23T16:44:33.960Z,20.95
2023-04-23T16:49:36.992Z,14.75
2023-04-23T16:54:39.579Z,10.20
2023-04-23T16:59:42.394Z,13.48
2023-04-23T17:04:48.445Z,22.60
2023-04-23T17:09:50.956Z,25.08
2023-04-23T17:14:53.576Z,19.27
2023-04-23T17:19:56.329Z,23.38
2023-04-23T17:24:59.092Z,15.82
2023-04-23T17:30:01.756Z,14.45
2023-04-23T17:35:10.244Z,13.10
2023-04-23T17:40:13.476Z,14.80
2023-04-23T17:45:17.594Z,9.88
2023-04-23T17:50:20.796Z,11.88
2023-04-23T17:55:23.751Z,12.45
2023-04-23T18:00:28.739Z,13.45
2023-04-23T18:05:31.663Z,10.23
2023-04-23T18:10:34.649Z,16.33
2023-04-23T18:15:37.929Z,20.10
2023-04-23T18:20:40.672Z,15.32
2023-04-23T18:25:43.354Z,17.70
2023-04-23T18:30:48.861Z,20.27
2023-04-23T18:35:59.524Z,28.17
2023-04-23T18:41:04.884Z,23.27
2023-04-23T18:46:07.651Z,22.25
2023-04-23T18:51:10.517Z,23.73
2023-04-23T18:56:17.572Z,23.48
2023-04-23T19:01:21.049Z,20.05
2023-04-23T19:18:19.032Z,18.50
2023-04-23T19:23:21.712Z,19.38
2023-04-23T19:28:34.752Z,22.17
2023-04-23T19:33:37.690Z,19.13
2023-04-23T19:38:40.961Z,19.70
2023-04-23T19:43:43.381Z,20.50
2023-04-23T19:48:46.009Z,20.75
2023-04-23T19:53:48.648Z,19.77
2023-04-23T19:58:51.436Z,17.27
2023-04-23T20:04:07.620Z,17.85
2023-04-23T20:09:18.525Z,18.83
2023-04-23T20:14:24.945Z,16.95
2023-04-23T20:19:27.883Z,17.25
2023-04-23T20:24:34.061Z,15.98
2023-04-23T20:29:37.062Z,18.42
2023-04-23T20:34:39.783Z,17.08
2023-04-23T20:39:43.178Z,17.75
2023-04-23T20:44:47.374Z,18.60
2023-04-23T20:49:50.163Z,19.33
2023-04-23T20:54:55.513Z,19.13
2023-04-23T21:00:11.963Z,20.77
2023-04-23T21:05:14.846Z,18.55
2023-04-23T21:10:17.596Z,20.65
2023-04-23T21:15:20.424Z,19.77
2023-04-23T21:20:23.160Z,18.70
2023-04-23T21:25:27.051Z,20.20
2023-04-23T21:30:43.285Z,19.45
2023-04-23T21:35:46.577Z,21.60
2023-04-23T21:40:49.196Z,19.27
2023-04-23T21:45:51.400Z,20.17
2023-04-23T21:50:54.083Z,18.65
2023-04-23T21:55:56.599Z,16.23
2023-04-23T22:00:59.161Z,15.52
2023-04-23T22:06:05.075Z,13.73
2023-04-23T22:11:11.695Z,12.45
2023-04-23T22:16:27.482Z,11.00
2023-04-23T22:21:31.493Z,16.23
2023-04-23T22:26:36.279Z,12.70
2023-04-23T22:31:39.033Z,12.55
2023-04-23T22:36:43.532Z,11.27
2023-04-23T22:41:46.289Z,11.90
2023-04-23T22:46:49.017Z,12.38
2023-04-23T22:51:51.594Z,12.73
2023-04-23T22:56:54.294Z,12.40
2023-04-23T23:01:56.797Z,12.13
2023-04-23T23:06:59.540Z,12.02
2023-04-23T23:12:03.573Z,13.68
2023-04-23T23:17:06.631Z,13.27
2023-04-23T23:22:09.475Z,13.57
2023-04-23T23:27:12.054Z,13.30
2023-04-23T23:32:14.793Z,13.55
2023-04-23T23:37:47.320Z,13.10
2023-04-23T23:42:49.952Z,12.68
2023-04-23T23:47:52.554Z,14.70
2023-04-23T23:52:55.288Z,15.68
2023-04-23T23:57:57.833Z,14.93
